Wrightsboro, Texas
Current Conditions -  °F | °C
As of 6:51 PM on Saturday 25 Oct 2014 (Local Time) from KBAZ Reporting Station
Clear Clear  
Wind Chill: 79°   Ceiling: Unl
Heat Index: 80°   Visibility: 10mi
Dew Point: 55°   Wind: 7mph
Humidity: 44%   Direction: 180°S
Pressure: 30.07"   Gusts: NA
Location:  29.37°N, 97.56°W
Report Text: KBAZ 252351Z 18006KT 10SM CLR 26/13 A3007 RMK AO2 SLP176 T02610128 10317 20261 55004
Loading
Personal Weather Stations






























Interactive Weather Map
Tropical Storm Tracking
New forecast layout! Learn more

10-Day Weather Forecast

Advertisements
Track Severe Weather on mobile